Mechita, Argentina
Current Conditions -  °F | °C
As of 2:00 PM on Monday 22 Dec 2014 (Local Time) from SAEZ Reporting Station
Few Clouds Few Clouds  
Wind Chill: 70°   Ceiling: Unl
Heat Index: 70°   Visibility: 6mi
Dew Point: 41°   Wind: 14mph
Humidity: 35%   Direction: 250°WSW
Pressure: 30.06"   Gusts: NA
Location:  35.07°S, 60.4°W
Report Text: SAEZ 221700Z 25012KT 210V280 9999 FEW050TCU 21/05 Q1018
Loading
Personal Weather Stations






























Interactive Weather Map New forecast layout! Learn more

10-Day Weather Forecast

Advertisements
Track Severe Weather on mobile